Time;durP1;ratioP1;P1;durP2;ratioP2;P2;SDS_P1;SDS_P2;PMS_P1;PMS_P2;Temp;Humidity;BMP_temperature;BMP_pressure;BME280_temperature;BME280_humidity;BME280_pressure;Samples;Min_cycle;Max_cycle;Signal;HPM_P1;HPM_P2
2022/01/29 00:00:55;;;;;;;3.53;2.47;;;;;;;;;;4980172;28;20027;-71
2022/01/29 00:03:30;;;;;;;3.25;2.92;;;;;;;;;;4977540;28;20045;-72
2022/01/29 00:05:58;;;;;;;6.40;3.22;;;;;;;;;;4982856;28;20117;-72
2022/01/29 00:08:24;;;;;;;3.55;2.40;;;;;;;;;;4984826;28;20939;-72
2022/01/29 00:10:55;;;;;;;5.13;3.50;;;;;;;;;;4983811;28;20040;-72
2022/01/29 00:13:21;;;;;;;4.25;3.58;;;;;;;;;;4977934;28;20023;-72
2022/01/29 00:15:48;;;;;;;6.13;4.25;;;;;;;;;;5000823;28;20181;-72
2022/01/29 00:18:14;;;;;;;6.07;3.45;;;;;;;;;;4985232;28;20547;-73
2022/01/29 00:20:40;;;;;;;2.05;1.60;;;;;;;;;;4983289;28;20118;-71
2022/01/29 00:23:06;;;;;;;3.13;2.88;;;;;;;;;;4988574;28;20035;-71
2022/01/29 00:25:32;;;;;;;4.20;2.75;;;;;;;;;;4988985;28;20726;-71
2022/01/29 00:27:59;;;;;;;3.58;2.53;;;;;;;;;;4992169;28;20217;-72
2022/01/29 00:30:31;;;;;;;3.63;3.08;;;;;;;;;;4983729;28;20473;-73
2022/01/29 00:32:57;;;;;;;3.17;2.80;;;;;;;;;;4984265;28;20023;-74
2022/01/29 00:35:23;;;;;;;3.50;2.88;;;;;;;;;;4977975;28;20027;-72
2022/01/29 00:37:49;;;;;;;5.28;2.75;;;;;;;;;;4982375;28;20030;-72
2022/01/29 00:40:16;;;;;;;4.25;2.88;;;;;;;;;;4984822;28;20040;-72
2022/01/29 00:42:42;;;;;;;4.63;2.92;;;;;;;;;;4984298;28;20129;-71
2022/01/29 00:45:08;;;;;;;2.78;2.30;;;;;;;;;;4987233;28;20449;-73
2022/01/29 00:47:34;;;;;;;6.00;2.92;;;;;;;;;;4982435;28;20034;-71
2022/01/29 00:50:00;;;;;;;3.50;2.58;;;;;;;;;;4981542;28;20038;-72
2022/01/29 00:52:26;;;;;;;7.13;2.90;;;;;;;;;;4984139;28;20449;-71
2022/01/29 00:54:52;;;;;;;2.22;1.90;;;;;;;;;;4983829;28;20018;-72
2022/01/29 00:57:18;;;;;;;5.35;2.40;;;;;;;;;;4978757;28;20048;-72
2022/01/29 00:59:45;;;;;;;3.75;2.30;;;;;;;;;;4988873;28;20049;-72
2022/01/29 01:02:11;;;;;;;2.40;2.10;;;;;;;;;;4983938;28;20133;-73
2022/01/29 01:04:39;;;;;;;1.75;1.65;;;;;;;;;;4983851;28;20064;-72
2022/01/29 01:07:08;;;;;;;4.05;2.30;;;;;;;;;;4976048;28;20026;-72
2022/01/29 01:09:35;;;;;;;4.85;2.00;;;;;;;;;;4985863;28;20751;-72
2022/01/29 01:12:01;;;;;;;2.50;2.08;;;;;;;;;;4984952;28;20038;-72
2022/01/29 01:14:27;;;;;;;3.05;2.10;;;;;;;;;;4980122;28;20022;-72
2022/01/29 01:16:53;;;;;;;2.97;2.10;;;;;;;;;;4985808;28;20100;-72
2022/01/29 01:19:20;;;;;;;2.42;1.80;;;;;;;;;;4977559;28;20038;-72
2022/01/29 01:21:46;;;;;;;2.35;2.15;;;;;;;;;;4982491;28;20098;-72
2022/01/29 01:24:12;;;;;;;2.33;1.75;;;;;;;;;;4983198;28;20383;-72
2022/01/29 01:26:38;;;;;;;3.85;1.80;;;;;;;;;;4978728;28;20033;-72
2022/01/29 01:29:04;;;;;;;2.53;1.92;;;;;;;;;;4984604;28;20031;-72
2022/01/29 01:31:30;;;;;;;4.57;2.25;;;;;;;;;;4990980;28;20458;-71
2022/01/29 01:33:56;;;;;;;2.28;1.75;;;;;;;;;;4979823;28;20485;-71
2022/01/29 01:36:25;;;;;;;3.30;1.80;;;;;;;;;;4981356;28;20101;-72
2022/01/29 01:38:58;;;;;;;3.20;1.70;;;;;;;;;;4987018;28;20031;-72
2022/01/29 01:41:26;;;;;;;5.20;1.95;;;;;;;;;;4982934;28;20030;-71
2022/01/29 01:43:59;;;;;;;4.90;1.90;;;;;;;;;;4983602;28;20031;-72
2022/01/29 01:46:28;;;;;;;8.90;1.92;;;;;;;;;;4982593;28;20102;-72
2022/01/29 01:48:54;;;;;;;2.53;1.77;;;;;;;;;;4980348;28;20037;-72
2022/01/29 01:51:20;;;;;;;4.85;2.30;;;;;;;;;;4980859;28;20077;-73
2022/01/29 01:53:46;;;;;;;5.72;2.17;;;;;;;;;;4988378;28;20034;-72
2022/01/29 01:56:12;;;;;;;6.68;2.83;;;;;;;;;;4988339;28;20030;-73
2022/01/29 01:58:38;;;;;;;5.15;2.13;;;;;;;;;;4982521;28;20030;-72
2022/01/29 02:01:04;;;;;;;3.95;1.77;;;;;;;;;;4986526;28;20073;-73
2022/01/29 02:03:30;;;;;;;4.68;2.40;;;;;;;;;;4984055;28;20035;-71
2022/01/29 02:05:57;;;;;;;4.95;1.92;;;;;;;;;;4989851;28;20038;-71
2022/01/29 02:08:24;;;;;;;7.93;3.28;;;;;;;;;;4986655;28;20043;-72
2022/01/29 02:10:51;;;;;;;11.57;2.33;;;;;;;;;;4984572;28;20045;-74
2022/01/29 02:13:17;;;;;;;5.53;1.80;;;;;;;;;;4989301;28;20023;-73
2022/01/29 02:15:43;;;;;;;7.40;2.20;;;;;;;;;;4985454;28;20140;-74
2022/01/29 02:18:13;;;;;;;6.10;2.35;;;;;;;;;;4994095;28;20031;-72
2022/01/29 02:20:40;;;;;;;5.00;2.00;;;;;;;;;;4992569;28;20492;-73
2022/01/29 02:23:06;;;;;;;7.82;2.47;;;;;;;;;;4990405;28;20033;-73
2022/01/29 02:25:36;;;;;;;7.57;2.92;;;;;;;;;;4984045;28;20038;-73
2022/01/29 02:28:07;;;;;;;6.07;2.33;;;;;;;;;;4991303;28;20038;-72
2022/01/29 02:30:34;;;;;;;8.93;2.50;;;;;;;;;;4998980;28;20393;-72
2022/01/29 02:33:04;;;;;;;6.78;2.85;;;;;;;;;;4991937;28;20109;-72
2022/01/29 02:35:30;;;;;;;9.20;3.15;;;;;;;;;;4994807;28;20100;-73
2022/01/29 02:37:57;;;;;;;8.93;2.47;;;;;;;;;;4987576;28;20026;-73
2022/01/29 02:40:24;;;;;;;7.72;2.10;;;;;;;;;;4990721;28;20503;-73
2022/01/29 02:42:55;;;;;;;8.75;2.42;;;;;;;;;;4981118;28;20617;-72
2022/01/29 02:45:21;;;;;;;10.27;3.28;;;;;;;;;;4992992;28;20018;-72
2022/01/29 02:47:47;;;;;;;6.18;2.60;;;;;;;;;;4989997;28;20030;-71
2022/01/29 02:50:13;;;;;;;8.43;2.53;;;;;;;;;;4990200;28;20501;-71
2022/01/29 02:52:39;;;;;;;13.10;3.33;;;;;;;;;;4979737;28;20065;-72
2022/01/29 02:55:06;;;;;;;10.40;3.70;;;;;;;;;;4990334;28;20056;-73
2022/01/29 02:57:32;;;;;;;6.07;2.78;;;;;;;;;;4991482;28;20042;-71
2022/01/29 03:00:00;;;;;;;9.30;3.17;;;;;;;;;;4987655;28;20125;-72
2022/01/29 03:02:29;;;;;;;7.75;2.72;;;;;;;;;;4987066;28;20497;-72
2022/01/29 03:04:57;;;;;;;10.63;3.00;;;;;;;;;;4985664;28;20086;-72
2022/01/29 03:07:23;;;;;;;12.50;2.67;;;;;;;;;;4997120;28;20096;-72
2022/01/29 03:09:49;;;;;;;9.10;2.80;;;;;;;;;;4985059;28;20042;-72
2022/01/29 03:12:15;;;;;;;7.50;2.35;;;;;;;;;;4985292;28;20376;-73
2022/01/29 03:14:41;;;;;;;5.63;2.33;;;;;;;;;;4985811;28;20106;-73
2022/01/29 03:17:07;;;;;;;9.25;3.20;;;;;;;;;;4988651;28;20034;-73
2022/01/29 03:19:33;;;;;;;7.70;3.55;;;;;;;;;;4986531;28;20500;-72
2022/01/29 03:21:59;;;;;;;8.27;2.47;;;;;;;;;;4981691;28;20425;-72
2022/01/29 03:24:25;;;;;;;11.98;3.15;;;;;;;;;;4989505;28;20026;-72
2022/01/29 03:26:52;;;;;;;9.40;2.40;;;;;;;;;;4979018;28;20401;-72
2022/01/29 03:29:18;;;;;;;10.13;3.45;;;;;;;;;;4987492;28;20063;-72
2022/01/29 03:31:44;;;;;;;10.15;3.33;;;;;;;;;;4986537;28;20033;-71
2022/01/29 03:34:10;;;;;;;11.13;3.30;;;;;;;;;;4990034;28;20042;-71
2022/01/29 03:36:36;;;;;;;12.85;4.47;;;;;;;;;;4985471;28;20026;-72
2022/01/29 03:39:02;;;;;;;12.98;3.47;;;;;;;;;;4982803;28;20026;-71
2022/01/29 03:41:29;;;;;;;7.55;2.80;;;;;;;;;;4980931;28;20034;-71
2022/01/29 03:43:58;;;;;;;9.25;3.00;;;;;;;;;;4977468;28;20034;-71
2022/01/29 03:46:24;;;;;;;11.32;2.80;;;;;;;;;;4985199;28;20038;-72
2022/01/29 03:48:50;;;;;;;8.18;2.75;;;;;;;;;;4987515;28;20033;-72
2022/01/29 03:51:16;;;;;;;10.07;3.67;;;;;;;;;;4991664;28;20068;-72
2022/01/29 03:53:42;;;;;;;14.65;3.20;;;;;;;;;;4992139;28;20026;-72
2022/01/29 03:56:08;;;;;;;11.95;3.80;;;;;;;;;;4981413;28;20786;-71
2022/01/29 03:58:35;;;;;;;10.13;3.05;;;;;;;;;;4984353;28;20026;-73
2022/01/29 04:01:01;;;;;;;5.35;3.05;;;;;;;;;;4983030;28;20725;-72
2022/01/29 04:03:27;;;;;;;12.27;4.65;;;;;;;;;;4986518;28;20037;-72
2022/01/29 04:05:53;;;;;;;17.20;2.92;;;;;;;;;;4987124;28;20034;-72
2022/01/29 04:08:19;;;;;;;7.13;3.38;;;;;;;;;;4984200;28;20042;-72
2022/01/29 04:10:47;;;;;;;6.18;2.35;;;;;;;;;;4991931;28;20026;-72
2022/01/29 04:13:14;;;;;;;10.20;2.90;;;;;;;;;;4979235;28;20026;-72
2022/01/29 04:15:40;;;;;;;8.68;3.33;;;;;;;;;;4991861;28;20069;-71
2022/01/29 04:18:06;;;;;;;10.90;3.20;;;;;;;;;;4990116;28;20109;-71
2022/01/29 04:20:32;;;;;;;6.18;2.60;;;;;;;;;;4987498;28;20488;-72
2022/01/29 04:22:59;;;;;;;11.70;2.78;;;;;;;;;;5001424;28;20030;-73
2022/01/29 04:25:25;;;;;;;7.05;2.65;;;;;;;;;;4995912;28;20376;-72
2022/01/29 04:27:51;;;;;;;14.95;2.72;;;;;;;;;;4991426;28;20021;-72
2022/01/29 04:30:31;;;;;;;7.72;3.72;;;;;;;;;;4982259;28;20548;-73
2022/01/29 04:33:02;;;;;;;7.40;2.42;;;;;;;;;;4990866;28;20088;-72
2022/01/29 04:35:29;;;;;;;4.53;2.00;;;;;;;;;;4999177;28;20030;-71
2022/01/29 04:37:55;;;;;;;7.47;2.78;;;;;;;;;;4987437;28;20385;-71
2022/01/29 04:40:21;;;;;;;5.97;2.42;;;;;;;;;;4985549;28;20496;-71
2022/01/29 04:42:48;;;;;;;8.32;2.55;;;;;;;;;;4993480;28;20104;-72
2022/01/29 04:45:14;;;;;;;13.23;2.60;;;;;;;;;;4984016;28;20030;-72
2022/01/29 04:47:40;;;;;;;8.88;2.30;;;;;;;;;;4976830;28;20605;-72
2022/01/29 04:50:07;;;;;;;9.07;2.63;;;;;;;;;;4988210;28;20086;-72
2022/01/29 04:52:33;;;;;;;11.07;2.50;;;;;;;;;;4977234;28;20031;-71
2022/01/29 04:54:59;;;;;;;8.90;2.42;;;;;;;;;;4977252;28;20050;-72
2022/01/29 04:57:25;;;;;;;8.32;2.83;;;;;;;;;;4978369;28;20105;-72
2022/01/29 04:59:51;;;;;;;5.95;2.53;;;;;;;;;;4980009;28;20022;-71
2022/01/29 05:02:17;;;;;;;10.25;3.25;;;;;;;;;;4986557;28;20041;-72
2022/01/29 05:04:43;;;;;;;12.30;3.85;;;;;;;;;;4981009;28;20397;-72
2022/01/29 05:07:09;;;;;;;10.57;3.28;;;;;;;;;;4983510;28;20104;-73
2022/01/29 05:09:35;;;;;;;10.82;3.20;;;;;;;;;;4981178;28;20065;-72
2022/01/29 05:12:02;;;;;;;8.02;2.22;;;;;;;;;;4984845;28;20535;-72
2022/01/29 05:14:41;;;;;;;8.55;3.00;;;;;;;;;;4983429;28;20033;-71
2022/01/29 05:26:49;;;;;;;6.78;3.08;;;;;;;;;;4984002;28;20022;-72
2022/01/29 05:28:16;;;;;;;7.03;2.75;;;;;;;;;;4998049;28;20570;-72
2022/01/29 05:30:42;;;;;;;7.68;2.72;;;;;;;;;;4996145;28;20034;-72
2022/01/29 05:33:08;;;;;;;7.95;3.20;;;;;;;;;;4987404;28;20030;-72
2022/01/29 05:35:34;;;;;;;7.38;2.72;;;;;;;;;;4993868;28;20065;-73
2022/01/29 05:38:00;;;;;;;4.25;2.65;;;;;;;;;;4995012;28;20034;-72
2022/01/29 05:40:27;;;;;;;10.57;2.90;;;;;;;;;;4986200;28;20021;-71
2022/01/29 05:42:53;;;;;;;12.75;3.17;;;;;;;;;;4992461;28;20026;-72
2022/01/29 05:45:19;;;;;;;11.27;3.30;;;;;;;;;;4984932;28;20614;-72
2022/01/29 05:47:45;;;;;;;10.88;3.13;;;;;;;;;;4987247;28;20030;-72
2022/01/29 05:50:12;;;;;;;12.70;4.05;;;;;;;;;;4985256;28;20061;-72
2022/01/29 05:52:38;;;;;;;7.60;3.03;;;;;;;;;;4984866;28;20180;-72
2022/01/29 05:55:05;;;;;;;8.02;3.35;;;;;;;;;;4983483;28;20026;-72
2022/01/29 05:57:31;;;;;;;7.90;3.55;;;;;;;;;;4986048;28;20028;-72
2022/01/29 05:59:57;;;;;;;7.57;3.72;;;;;;;;;;4989570;28;20028;-72
2022/01/29 06:02:23;;;;;;;12.65;3.08;;;;;;;;;;4990526;28;20025;-73
2022/01/29 06:04:49;;;;;;;8.75;4.13;;;;;;;;;;4986772;28;20081;-71
2022/01/29 06:07:15;;;;;;;11.23;3.90;;;;;;;;;;5004977;28;20032;-72
2022/01/29 06:09:41;;;;;;;11.15;3.72;;;;;;;;;;4989208;28;20042;-72
2022/01/29 06:12:07;;;;;;;8.13;2.58;;;;;;;;;;4990485;28;20438;-71
2022/01/29 06:14:33;;;;;;;15.50;3.38;;;;;;;;;;4993589;28;20023;-72
2022/01/29 06:16:59;;;;;;;9.50;3.20;;;;;;;;;;4997079;28;20391;-73
2022/01/29 06:19:25;;;;;;;8.93;3.67;;;;;;;;;;4988673;28;20092;-72
2022/01/29 06:21:51;;;;;;;13.82;3.28;;;;;;;;;;4985158;28;20493;-72
2022/01/29 06:24:18;;;;;;;9.60;3.53;;;;;;;;;;4990346;28;20026;-72
2022/01/29 06:26:44;;;;;;;11.63;3.45;;;;;;;;;;4992923;28;20027;-72
2022/01/29 06:29:10;;;;;;;13.23;3.97;;;;;;;;;;4983852;28;20468;-72
2022/01/29 06:31:36;;;;;;;16.33;3.72;;;;;;;;;;4986875;28;20026;-72
2022/01/29 06:34:02;;;;;;;15.55;3.90;;;;;;;;;;4984156;28;20556;-72
2022/01/29 06:36:28;;;;;;;7.97;3.35;;;;;;;;;;4988651;28;20407;-72
2022/01/29 06:38:54;;;;;;;9.60;3.45;;;;;;;;;;4993745;28;20026;-73
2022/01/29 06:41:20;;;;;;;6.78;3.25;;;;;;;;;;4997279;28;20511;-72
2022/01/29 06:43:46;;;;;;;12.85;3.58;;;;;;;;;;4992568;28;20085;-72
2022/01/29 06:46:12;;;;;;;14.20;4.07;;;;;;;;;;4996247;28;20187;-71
2022/01/29 06:48:38;;;;;;;9.73;3.03;;;;;;;;;;4993354;28;20034;-71
2022/01/29 06:51:04;;;;;;;14.65;3.13;;;;;;;;;;4994991;28;20034;-72
2022/01/29 06:53:31;;;;;;;8.20;2.83;;;;;;;;;;4988446;28;20073;-73
2022/01/29 06:55:57;;;;;;;17.42;4.25;;;;;;;;;;4980533;28;20399;-72
2022/01/29 06:58:23;;;;;;;16.45;3.45;;;;;;;;;;5003310;28;20107;-71
2022/01/29 07:00:49;;;;;;;11.30;3.70;;;;;;;;;;4985116;28;20080;-71
2022/01/29 07:03:15;;;;;;;10.02;3.75;;;;;;;;;;4978609;28;20041;-71
2022/01/29 07:05:41;;;;;;;12.60;3.50;;;;;;;;;;4985425;28;20073;-73
2022/01/29 07:08:07;;;;;;;12.30;3.40;;;;;;;;;;4986122;28;20039;-72
2022/01/29 07:10:34;;;;;;;6.43;3.60;;;;;;;;;;4985050;28;20026;-73
2022/01/29 07:13:00;;;;;;;15.82;3.30;;;;;;;;;;4990832;28;20033;-73
2022/01/29 07:15:26;;;;;;;9.00;2.95;;;;;;;;;;5003545;28;20045;-72
2022/01/29 07:17:52;;;;;;;7.47;2.83;;;;;;;;;;4981431;28;20535;-73
2022/01/29 07:20:18;;;;;;;9.15;3.97;;;;;;;;;;4985735;28;20037;-72
2022/01/29 07:22:44;;;;;;;7.25;2.75;;;;;;;;;;4998221;28;20161;-71
2022/01/29 07:25:10;;;;;;;7.75;2.50;;;;;;;;;;4992461;28;20029;-72
2022/01/29 07:27:36;;;;;;;7.28;2.63;;;;;;;;;;4996069;28;20513;-72
2022/01/29 07:30:02;;;;;;;9.38;3.00;;;;;;;;;;4996368;28;20041;-72
2022/01/29 07:32:28;;;;;;;7.30;2.40;;;;;;;;;;4998197;28;20038;-71
2022/01/29 07:34:55;;;;;;;6.28;2.72;;;;;;;;;;4990082;28;20014;-70
2022/01/29 07:37:21;;;;;;;9.25;2.92;;;;;;;;;;4991431;28;20023;-72
2022/01/29 07:39:47;;;;;;;17.25;3.03;;;;;;;;;;4989649;28;21161;-72
2022/01/29 07:42:13;;;;;;;10.75;2.95;;;;;;;;;;4985966;28;20027;-72
2022/01/29 07:44:39;;;;;;;10.55;3.60;;;;;;;;;;4987862;28;20033;-72
2022/01/29 07:47:05;;;;;;;8.45;2.42;;;;;;;;;;4985255;28;20031;-72
2022/01/29 07:49:31;;;;;;;6.65;2.58;;;;;;;;;;5003835;28;20054;-71
2022/01/29 07:51:57;;;;;;;6.18;2.35;;;;;;;;;;4988754;28;20373;-73
2022/01/29 07:54:23;;;;;;;6.32;2.53;;;;;;;;;;4988392;28;20030;-72
2022/01/29 07:56:50;;;;;;;6.47;3.38;;;;;;;;;;4985650;28;20366;-72
2022/01/29 07:59:16;;;;;;;6.97;2.47;;;;;;;;;;4982668;28;20022;-73
2022/01/29 08:01:42;;;;;;;10.82;2.55;;;;;;;;;;4983240;28;20147;-72
2022/01/29 08:04:08;;;;;;;4.72;1.98;;;;;;;;;;4990045;28;20026;-73
2022/01/29 08:06:34;;;;;;;5.28;2.17;;;;;;;;;;4990633;28;20034;-71
2022/01/29 08:09:00;;;;;;;6.57;2.33;;;;;;;;;;4987005;28;20108;-71
2022/01/29 08:11:26;;;;;;;6.88;2.40;;;;;;;;;;4994038;28;20038;-71
2022/01/29 08:13:52;;;;;;;4.28;2.10;;;;;;;;;;4992786;28;20080;-72
2022/01/29 08:16:19;;;;;;;6.63;2.85;;;;;;;;;;4988247;28;20458;-71
2022/01/29 08:18:46;;;;;;;5.75;1.92;;;;;;;;;;4989946;28;20030;-72
2022/01/29 08:21:12;;;;;;;5.80;1.98;;;;;;;;;;4984689;28;20094;-73
2022/01/29 08:23:38;;;;;;;5.50;2.00;;;;;;;;;;4990895;28;20081;-71
2022/01/29 08:26:04;;;;;;;5.25;2.03;;;;;;;;;;4989158;28;20513;-72
2022/01/29 08:28:30;;;;;;;4.05;1.80;;;;;;;;;;4977692;28;20057;-71
2022/01/29 08:30:57;;;;;;;4.10;1.98;;;;;;;;;;4981834;28;20036;-73
2022/01/29 08:33:23;;;;;;;5.22;1.90;;;;;;;;;;4980215;28;20054;-71
2022/01/29 08:35:49;;;;;;;7.80;2.00;;;;;;;;;;4987189;28;20034;-72
2022/01/29 08:38:16;;;;;;;4.85;2.00;;;;;;;;;;4988197;28;20448;-73
2022/01/29 08:40:42;;;;;;;5.53;2.50;;;;;;;;;;4996460;28;20057;-72
2022/01/29 08:43:09;;;;;;;7.75;2.72;;;;;;;;;;4987201;28;20026;-73
2022/01/29 08:45:35;;;;;;;7.90;2.25;;;;;;;;;;4995382;28;20034;-72
2022/01/29 08:48:01;;;;;;;7.55;2.63;;;;;;;;;;4992156;28;20037;-71
2022/01/29 08:50:27;;;;;;;4.47;2.25;;;;;;;;;;4981896;28;20025;-73
2022/01/29 08:52:53;;;;;;;4.45;2.33;;;;;;;;;;4979129;28;20030;-72
2022/01/29 08:55:19;;;;;;;11.48;2.58;;;;;;;;;;4989029;28;20490;-72
2022/01/29 08:57:45;;;;;;;7.85;2.70;;;;;;;;;;4990718;28;20034;-74
2022/01/29 09:00:12;;;;;;;9.48;2.78;;;;;;;;;;4982414;28;20305;-72
2022/01/29 09:02:38;;;;;;;6.57;2.38;;;;;;;;;;4981909;28;20078;-72
2022/01/29 09:05:06;;;;;;;10.93;2.90;;;;;;;;;;4992977;28;20066;-73
2022/01/29 09:07:32;;;;;;;8.07;2.67;;;;;;;;;;4989314;28;20178;-72
2022/01/29 09:09:58;;;;;;;8.32;2.40;;;;;;;;;;4987680;28;20034;-72
2022/01/29 09:12:24;;;;;;;8.77;2.70;;;;;;;;;;4995495;28;20050;-72
2022/01/29 09:14:50;;;;;;;3.92;1.77;;;;;;;;;;4989069;28;20027;-72
2022/01/29 09:17:16;;;;;;;5.68;2.80;;;;;;;;;;4993379;28;20114;-72
2022/01/29 09:19:42;;;;;;;9.07;3.47;;;;;;;;;;4989582;28;20031;-72
2022/01/29 09:22:08;;;;;;;16.55;3.67;;;;;;;;;;4989846;28;20037;-73
2022/01/29 09:24:34;;;;;;;10.55;2.72;;;;;;;;;;4996026;28;20172;-72
2022/01/29 09:27:01;;;;;;;13.25;4.03;;;;;;;;;;4991108;28;20393;-72
2022/01/29 09:29:27;;;;;;;17.75;3.40;;;;;;;;;;4990054;28;20704;-74
2022/01/29 09:31:53;;;;;;;12.55;3.80;;;;;;;;;;4988026;28;20097;-73
2022/01/29 09:34:19;;;;;;;10.80;3.33;;;;;;;;;;4995024;28;20362;-72
2022/01/29 09:36:45;;;;;;;19.55;4.55;;;;;;;;;;4982425;28;20030;-72
2022/01/29 09:39:11;;;;;;;13.05;3.75;;;;;;;;;;4987706;28;20085;-73
2022/01/29 09:41:38;;;;;;;12.05;4.68;;;;;;;;;;5004696;28;20032;-73
2022/01/29 09:44:04;;;;;;;9.40;3.10;;;;;;;;;;4986026;28;20026;-72
2022/01/29 09:46:31;;;;;;;16.00;3.53;;;;;;;;;;4992701;28;20041;-72
2022/01/29 09:48:57;;;;;;;15.75;4.82;;;;;;;;;;5005650;28;20032;-71
2022/01/29 09:51:23;;;;;;;17.98;3.85;;;;;;;;;;5004852;28;20480;-72
2022/01/29 09:53:49;;;;;;;16.15;4.32;;;;;;;;;;5000262;28;20034;-71
2022/01/29 09:56:16;;;;;;;12.27;4.55;;;;;;;;;;4990085;28;20050;-70
2022/01/29 09:58:43;;;;;;;13.57;5.00;;;;;;;;;;4995013;28;20404;-71
2022/01/29 10:01:09;;;;;;;26.73;5.55;;;;;;;;;;4984503;28;20030;-72
2022/01/29 10:03:36;;;;;;;26.30;7.30;;;;;;;;;;4991349;28;20105;-73
2022/01/29 10:06:03;;;;;;;22.48;5.72;;;;;;;;;;4988343;28;20039;-71
2022/01/29 10:08:30;;;;;;;27.58;5.90;;;;;;;;;;4988106;28;20489;-72
2022/01/29 10:10:56;;;;;;;18.95;5.28;;;;;;;;;;4990514;28;20030;-74
2022/01/29 10:13:28;;;;;;;22.52;6.63;;;;;;;;;;4983116;28;20732;-69
2022/01/29 10:16:13;;;;;;;17.55;5.20;;;;;;;;;;4985840;28;20796;-72
2022/01/29 10:18:40;;;;;;;16.50;5.03;;;;;;;;;;4987348;28;20117;-72
2022/01/29 10:21:14;;;;;;;21.30;6.07;;;;;;;;;;4986364;28;20110;-72
2022/01/29 10:23:41;;;;;;;21.60;6.75;;;;;;;;;;4985437;28;20113;-71
2022/01/29 10:26:09;;;;;;;22.00;5.53;;;;;;;;;;4983548;28;20018;-69
2022/01/29 10:28:36;;;;;;;26.88;5.60;;;;;;;;;;4985165;28;20038;-71
2022/01/29 10:31:08;;;;;;;25.90;6.35;;;;;;;;;;4987988;28;20352;-69
2022/01/29 10:33:39;;;;;;;19.95;6.97;;;;;;;;;;4982921;28;20488;-71
2022/01/29 10:36:06;;;;;;;19.20;5.00;;;;;;;;;;4988080;28;20069;-71
2022/01/29 10:38:41;;;;;;;22.75;6.18;;;;;;;;;;4998432;28;20393;-71
2022/01/29 10:41:21;;;;;;;28.15;7.22;;;;;;;;;;4985877;28;20035;-71
2022/01/29 10:44:19;;;;;;;27.75;5.65;;;;;;;;;;4983673;28;20511;-70
2022/01/29 10:46:49;;;;;;;24.55;5.72;;;;;;;;;;4987421;28;20030;-72
2022/01/29 10:49:17;;;;;;;24.55;6.05;;;;;;;;;;4986089;28;20026;-72
2022/01/29 10:51:53;;;;;;;23.58;4.55;;;;;;;;;;4984474;28;20033;-72
2022/01/29 10:54:20;;;;;;;18.40;4.88;;;;;;;;;;4982391;28;20034;-72
2022/01/29 10:57:09;;;;;;;21.15;6.00;;;;;;;;;;4980286;28;20081;-73
2022/01/29 10:59:38;;;;;;;20.77;5.57;;;;;;;;;;4996242;28;20060;-71
2022/01/29 11:02:06;;;;;;;28.05;6.07;;;;;;;;;;4983749;28;20027;-71
2022/01/29 11:04:32;;;;;;;17.25;4.97;;;;;;;;;;4984538;28;20401;-72
2022/01/29 11:07:03;;;;;;;25.08;5.82;;;;;;;;;;4985798;28;20030;-71
2022/01/29 11:09:29;;;;;;;16.88;5.43;;;;;;;;;;4982604;28;20037;-72
2022/01/29 11:12:01;;;;;;;19.38;6.32;;;;;;;;;;4984546;28;20042;-72
2022/01/29 11:14:28;;;;;;;22.23;6.60;;;;;;;;;;4979910;28;20026;-73
2022/01/29 11:16:55;;;;;;;16.35;5.40;;;;;;;;;;4983224;28;20091;-71
2022/01/29 11:19:21;;;;;;;22.05;4.90;;;;;;;;;;4986614;28;20030;-71
2022/01/29 11:21:48;;;;;;;32.75;7.90;;;;;;;;;;4999031;28;20030;-71
2022/01/29 11:24:17;;;;;;;20.83;6.22;;;;;;;;;;4984572;28;20386;-71
2022/01/29 11:26:45;;;;;;;16.45;5.00;;;;;;;;;;5001064;28;20392;-72
2022/01/29 11:29:24;;;;;;;19.63;5.53;;;;;;;;;;4985163;28;20061;-72
2022/01/29 11:32:14;;;;;;;20.35;5.20;;;;;;;;;;4984006;28;20042;-71
2022/01/29 11:34:59;;;;;;;22.02;6.53;;;;;;;;;;4985063;28;20109;-72
2022/01/29 11:37:38;;;;;;;22.35;5.70;;;;;;;;;;4985749;28;20030;-71
2022/01/29 11:40:15;;;;;;;19.70;6.45;;;;;;;;;;4983966;28;20026;-70
2022/01/29 11:42:53;;;;;;;18.38;6.97;;;;;;;;;;4981734;28;20034;-74
2022/01/29 11:45:41;;;;;;;25.27;6.22;;;;;;;;;;4988123;28;20042;-72
2022/01/29 11:48:08;;;;;;;15.90;5.78;;;;;;;;;;5013976;28;20627;-72
2022/01/29 11:50:34;;;;;;;25.20;6.78;;;;;;;;;;4984070;28;21297;-71
2022/01/29 11:53:01;;;;;;;23.25;5.75;;;;;;;;;;4986274;28;20117;-72
2022/01/29 11:55:41;;;;;;;16.90;6.47;;;;;;;;;;4996594;28;20022;-71
2022/01/29 11:58:28;;;;;;;27.75;5.82;;;;;;;;;;4982693;28;20057;-71
2022/01/29 12:00:56;;;;;;;19.13;5.20;;;;;;;;;;4983400;28;20475;-71
2022/01/29 12:03:38;;;;;;;22.83;6.53;;;;;;;;;;4985431;28;20026;-71
2022/01/29 12:09:10;;;;;;;17.00;4.32;;;;;;;;;;4983503;28;20160;-71
2022/01/29 12:11:41;;;;;;;17.33;5.20;;;;;;;;;;4984304;28;20117;-71
2022/01/29 12:14:16;;;;;;;18.65;4.90;;;;;;;;;;4984561;28;20747;-71
2022/01/29 12:16:59;;;;;;;13.60;5.63;;;;;;;;;;4982009;28;20493;-71
2022/01/29 12:19:42;;;;;;;21.90;4.78;;;;;;;;;;4983319;28;21366;-71
2022/01/29 12:22:10;;;;;;;15.68;4.82;;;;;;;;;;4982561;28;20497;-71
2022/01/29 12:24:36;;;;;;;16.92;5.65;;;;;;;;;;4983283;28;20046;-71
2022/01/29 12:27:03;;;;;;;10.48;4.90;;;;;;;;;;4982205;28;20041;-71
2022/01/29 12:29:30;;;;;;;16.70;4.82;;;;;;;;;;4982493;28;20026;-71
2022/01/29 12:31:57;;;;;;;13.10;3.67;;;;;;;;;;4983610;28;20812;-72
2022/01/29 12:34:24;;;;;;;11.50;3.45;;;;;;;;;;4986940;28;20038;-71
2022/01/29 12:36:50;;;;;;;15.25;3.65;;;;;;;;;;4983370;28;20058;-71
2022/01/29 12:39:22;;;;;;;19.23;4.72;;;;;;;;;;4983040;28;20388;-70
2022/01/29 12:42:03;;;;;;;14.38;4.57;;;;;;;;;;4983840;28;20034;-70
2022/01/29 12:44:29;;;;;;;14.82;4.40;;;;;;;;;;4984064;28;20521;-71
2022/01/29 12:46:56;;;;;;;12.38;3.92;;;;;;;;;;4982748;28;20026;-70
2022/01/29 12:49:22;;;;;;;14.13;4.65;;;;;;;;;;4984210;28;20057;-71
2022/01/29 12:51:53;;;;;;;16.35;4.10;;;;;;;;;;4984079;28;20039;-72
2022/01/29 12:54:19;;;;;;;13.48;3.75;;;;;;;;;;4982586;28;20555;-72
2022/01/29 12:56:45;;;;;;;16.58;6.55;;;;;;;;;;4983081;28;20053;-72
2022/01/29 12:59:13;;;;;;;12.57;4.20;;;;;;;;;;4985873;28;20030;-71
2022/01/29 13:01:40;;;;;;;15.90;4.32;;;;;;;;;;4984413;28;20042;-71
2022/01/29 13:04:08;;;;;;;11.00;3.75;;;;;;;;;;4983063;28;21731;-71
2022/01/29 13:06:34;;;;;;;9.88;3.13;;;;;;;;;;4981750;28;20495;-72
2022/01/29 13:09:14;;;;;;;15.18;4.45;;;;;;;;;;4995673;28;20133;-71
2022/01/29 13:11:40;;;;;;;7.88;3.63;;;;;;;;;;4982998;28;20037;-72
2022/01/29 13:14:12;;;;;;;11.30;3.63;;;;;;;;;;4982321;28;20384;-71
2022/01/29 13:16:39;;;;;;;17.13;4.53;;;;;;;;;;4981307;28;20030;-71
2022/01/29 13:19:05;;;;;;;11.88;4.38;;;;;;;;;;4982095;28;20031;-73
2022/01/29 13:21:33;;;;;;;13.38;3.67;;;;;;;;;;4993359;28;20516;-68
2022/01/29 13:24:00;;;;;;;13.43;4.72;;;;;;;;;;4980638;28;20030;-71
2022/01/29 13:26:29;;;;;;;16.40;4.55;;;;;;;;;;4981144;28;20034;-71
2022/01/29 13:29:05;;;;;;;10.32;3.70;;;;;;;;;;4982484;28;20065;-70
2022/01/29 13:31:44;;;;;;;12.07;3.90;;;;;;;;;;4982420;28;20454;-71
2022/01/29 13:34:46;;;;;;;14.55;3.92;;;;;;;;;;4985446;28;20034;-72
2022/01/29 13:37:28;;;;;;;13.25;4.20;;;;;;;;;;4982948;28;20057;-72
2022/01/29 13:39:55;;;;;;;11.90;3.92;;;;;;;;;;4981316;28;20185;-73
2022/01/29 13:42:22;;;;;;;13.23;3.92;;;;;;;;;;4981810;28;20097;-73
2022/01/29 13:45:05;;;;;;;11.85;3.60;;;;;;;;;;4982351;28;20030;-73
2022/01/29 13:47:32;;;;;;;13.95;3.78;;;;;;;;;;4984229;28;20396;-74
2022/01/29 13:49:58;;;;;;;9.80;3.80;;;;;;;;;;4983650;28;20039;-74
2022/01/29 13:52:24;;;;;;;17.58;3.78;;;;;;;;;;4985891;28;20076;-73
2022/01/29 13:54:51;;;;;;;9.77;3.78;;;;;;;;;;4987875;28;20030;-73
2022/01/29 13:57:17;;;;;;;9.15;3.55;;;;;;;;;;4986218;28;20037;-73
2022/01/29 13:59:46;;;;;;;9.70;3.88;;;;;;;;;;4985276;28;20366;-73
2022/01/29 14:02:12;;;;;;;13.70;5.22;;;;;;;;;;4986170;28;20523;-73
2022/01/29 14:04:40;;;;;;;14.30;3.60;;;;;;;;;;4985274;28;20053;-73
2022/01/29 14:07:09;;;;;;;15.50;3.13;;;;;;;;;;4986494;28;20129;-74
2022/01/29 14:09:52;;;;;;;18.67;5.38;;;;;;;;;;4999702;28;20087;-73
2022/01/29 14:12:19;;;;;;;12.13;4.50;;;;;;;;;;5002491;28;20038;-74
2022/01/29 14:14:49;;;;;;;15.30;3.88;;;;;;;;;;4988742;28;20379;-74
2022/01/29 14:17:17;;;;;;;11.65;4.00;;;;;;;;;;4988381;28;20033;-74
2022/01/29 14:19:45;;;;;;;10.70;3.58;;;;;;;;;;4986559;28;20030;-74
2022/01/29 14:22:11;;;;;;;16.15;3.85;;;;;;;;;;4984723;28;20030;-73
2022/01/29 14:24:38;;;;;;;8.60;3.10;;;;;;;;;;4986004;28;20080;-74
2022/01/29 14:27:04;;;;;;;10.27;3.15;;;;;;;;;;4984092;28;20739;-74
2022/01/29 14:29:31;;;;;;;8.40;3.20;;;;;;;;;;4986030;28;20117;-72
2022/01/29 14:31:57;;;;;;;11.00;3.63;;;;;;;;;;4984117;28;20477;-73
2022/01/29 14:34:23;;;;;;;10.20;4.43;;;;;;;;;;4984606;28;20480;-73
2022/01/29 14:36:54;;;;;;;9.18;3.70;;;;;;;;;;4983334;28;20031;-74
2022/01/29 14:39:20;;;;;;;10.48;3.03;;;;;;;;;;4987329;28;20519;-75
2022/01/29 14:41:46;;;;;;;12.90;3.97;;;;;;;;;;4983154;28;20174;-74
2022/01/29 14:44:12;;;;;;;6.85;3.15;;;;;;;;;;4985407;28;20042;-73
2022/01/29 14:46:38;;;;;;;13.30;4.32;;;;;;;;;;4985084;28;20117;-73
2022/01/29 14:49:04;;;;;;;6.78;3.55;;;;;;;;;;4985857;28;20034;-74
2022/01/29 14:51:34;;;;;;;13.35;4.32;;;;;;;;;;4986942;28;20042;-72